Time;durP1;ratioP1;P1;durP2;ratioP2;P2;SDS_P1;SDS_P2;PMS_P1;PMS_P2;Temp;Humidity;BMP_temperature;BMP_pressure;BME280_temperature;BME280_humidity;BME280_pressure;Samples;Min_cycle;Max_cycle;Signal;HPM_P1;HPM_P2
2023/12/29 00:04:55;;;;;;;3.10;0.93;;;20.00;47.50;;;;;;10463358;28;20080;-44
2023/12/29 00:09:58;;;;;;;0.93;0.70;;;20.20;47.20;;;;;;10466767;28;20121;-45
2023/12/29 00:14:59;;;;;;;1.48;0.80;;;20.00;47.40;;;;;;10466649;28;20124;-48
2023/12/29 00:20:01;;;;;;;1.15;0.80;;;20.00;47.40;;;;;;10474846;28;20148;-44
2023/12/29 00:25:05;;;;;;;2.17;0.85;;;20.10;47.30;;;;;;10472861;28;20584;-45
2023/12/29 00:30:08;;;;;;;1.83;0.80;;;20.00;47.50;;;;;;10461231;28;20056;-48
2023/12/29 00:35:10;;;;;;;2.13;0.80;;;20.00;47.50;;;;;;10466640;28;20054;-44
2023/12/29 00:40:14;;;;;;;1.85;0.80;;;20.00;47.50;;;;;;10464255;28;20511;-46
2023/12/29 00:45:15;;;;;;;1.90;0.68;;;19.80;47.60;;;;;;10475185;28;20098;-45
2023/12/29 00:50:17;;;;;;;1.83;0.80;;;19.80;47.90;;;;;;10470356;28;20040;-46
2023/12/29 00:55:20;;;;;;;1.63;0.77;;;19.80;47.80;;;;;;10466358;28;20133;-48
2023/12/29 01:00:22;;;;;;;2.15;0.90;;;19.70;47.90;;;;;;10470729;28;20041;-47
2023/12/29 01:05:24;;;;;;;1.20;0.70;;;19.70;47.80;;;;;;10472745;28;20145;-45
2023/12/29 01:10:27;;;;;;;1.73;0.90;;;19.70;47.90;;;;;;10465372;28;20542;-44
2023/12/29 01:15:28;;;;;;;1.15;0.73;;;19.70;48.00;;;;;;10464383;28;20083;-48
2023/12/29 01:20:30;;;;;;;1.17;0.82;;;19.60;48.20;;;;;;10463807;28;20045;-50
2023/12/29 01:25:33;;;;;;;1.00;0.70;;;19.60;48.10;;;;;;10472336;28;20142;-45
2023/12/29 01:30:34;;;;;;;2.10;0.77;;;19.60;48.00;;;;;;10474780;28;20597;-44
2023/12/29 01:35:36;;;;;;;1.42;0.80;;;19.40;48.20;;;;;;10474977;28;20132;-45
2023/12/29 01:40:45;;;;;;;1.17;0.70;;;19.50;48.20;;;;;;10470246;28;20643;-44
2023/12/29 01:45:47;;;;;;;0.98;0.65;;;19.50;48.20;;;;;;10468880;28;20060;-47
2023/12/29 01:50:48;;;;;;;1.63;0.80;;;19.50;48.10;;;;;;10479780;28;20147;-46
2023/12/29 01:55:51;;;;;;;2.38;0.85;;;19.40;48.40;;;;;;10479919;28;20609;-47
2023/12/29 02:00:53;;;;;;;1.92;0.80;;;19.30;48.40;;;;;;10476632;28;20136;-45
2023/12/29 02:05:55;;;;;;;0.90;0.60;;;19.30;48.50;;;;;;10477370;28;20481;-48
2023/12/29 02:10:58;;;;;;;1.02;0.60;;;19.30;48.40;;;;;;10472911;28;20131;-45
2023/12/29 02:16:01;;;;;;;1.20;0.90;;;19.30;48.30;;;;;;10478847;28;20547;-45
2023/12/29 02:21:03;;;;;;;1.15;0.73;;;19.30;48.40;;;;;;10471577;28;20135;-48
2023/12/29 02:26:09;;;;;;;1.27;0.70;;;19.20;48.70;;;;;;10473634;28;20068;-46
2023/12/29 02:31:14;;;;;;;1.60;0.88;;;19.20;48.60;;;;;;10469536;28;20141;-45
2023/12/29 02:36:16;;;;;;;1.38;0.70;;;19.20;48.50;;;;;;10473637;28;20132;-48
2023/12/29 02:41:19;;;;;;;1.05;0.60;;;19.10;48.90;;;;;;10485969;28;20614;-44
2023/12/29 02:46:21;;;;;;;0.88;0.57;;;19.20;49.30;;;;;;10472481;28;20198;-46
2023/12/29 02:51:22;;;;;;;1.55;0.65;;;19.20;48.50;;;;;;10464806;28;20140;-49
2023/12/29 02:56:25;;;;;;;0.82;0.60;;;19.20;48.50;;;;;;10471925;28;20511;-44
2023/12/29 03:01:28;;;;;;;1.60;0.90;;;19.00;48.70;;;;;;10474545;28;20488;-47
2023/12/29 03:06:30;;;;;;;1.08;0.60;;;19.10;48.70;;;;;;10479483;28;20080;-49
2023/12/29 03:11:33;;;;;;;0.70;0.60;;;19.10;48.70;;;;;;10469531;28;20139;-46
2023/12/29 03:16:35;;;;;;;0.88;0.50;;;19.10;48.70;;;;;;10468476;28;20479;-45
2023/12/29 03:21:36;;;;;;;1.17;0.70;;;19.00;48.80;;;;;;10473287;28;20144;-44
2023/12/29 03:26:39;;;;;;;2.17;0.80;;;19.00;48.80;;;;;;10471423;28;20135;-47
2023/12/29 03:31:41;;;;;;;1.58;0.80;;;19.00;48.80;;;;;;10476966;28;20127;-44
2023/12/29 03:36:42;;;;;;;1.00;0.68;;;19.00;48.60;;;;;;10470166;28;20127;-44
2023/12/29 03:41:45;;;;;;;0.80;0.50;;;18.90;48.70;;;;;;10470999;28;20618;-45
2023/12/29 03:46:47;;;;;;;1.42;0.77;;;18.90;48.90;;;;;;10475993;28;20131;-45
2023/12/29 03:51:49;;;;;;;1.33;0.60;;;18.80;49.00;;;;;;10476093;28;20127;-47
2023/12/29 03:56:51;;;;;;;1.00;0.60;;;18.90;48.70;;;;;;10473187;28;20163;-46
2023/12/29 04:01:53;;;;;;;1.70;0.68;;;18.90;48.90;;;;;;10463054;28;20127;-46
2023/12/29 04:06:55;;;;;;;0.60;0.50;;;18.80;49.00;;;;;;10462786;28;20148;-44
2023/12/29 04:11:58;;;;;;;1.77;0.60;;;19.00;48.50;;;;;;10469105;28;20094;-45
2023/12/29 04:17:00;;;;;;;1.50;0.70;;;19.70;47.00;;;;;;10473069;28;20131;-45
2023/12/29 04:22:02;;;;;;;1.00;0.60;;;19.70;47.20;;;;;;10472372;28;20474;-45
2023/12/29 04:27:05;;;;;;;1.02;0.60;;;19.30;48.50;;;;;;10466576;28;20633;-44
2023/12/29 04:32:07;;;;;;;1.20;0.65;;;19.40;48.90;;;;;;10463487;28;20049;-48
2023/12/29 04:37:08;;;;;;;1.08;0.60;;;19.70;48.40;;;;;;10477688;28;20132;-44
2023/12/29 04:42:11;;;;;;;0.73;0.50;;;19.80;48.10;;;;;;10464577;28;20128;-46
2023/12/29 04:47:13;;;;;;;0.70;0.60;;;20.00;48.00;;;;;;10466445;28;20547;-46
2023/12/29 04:52:14;;;;;;;0.95;0.52;;;20.00;48.20;;;;;;10464532;28;20127;-44
2023/12/29 04:57:17;;;;;;;0.93;0.50;;;19.90;48.20;;;;;;10473207;28;20135;-47
2023/12/29 05:02:19;;;;;;;1.75;0.55;;;20.10;47.90;;;;;;10480930;28;20051;-44
2023/12/29 05:07:21;;;;;;;1.05;0.60;;;20.10;47.90;;;;;;10466500;28;20045;-45
2023/12/29 05:12:24;;;;;;;1.73;0.50;;;20.10;47.90;;;;;;10460079;28;20132;-51
2023/12/29 05:17:25;;;;;;;0.80;0.60;;;20.30;47.80;;;;;;10473932;28;20155;-46
2023/12/29 05:22:27;;;;;;;0.40;0.40;;;20.30;47.80;;;;;;10473802;28;20128;-46
2023/12/29 05:27:30;;;;;;;0.82;0.50;;;20.30;47.80;;;;;;10485685;28;20144;-46
2023/12/29 05:32:31;;;;;;;0.80;0.47;;;20.30;47.80;;;;;;10475662;28;20554;-48
2023/12/29 05:37:33;;;;;;;0.77;0.50;;;20.50;47.70;;;;;;10477470;28;20483;-45
2023/12/29 05:42:36;;;;;;;0.80;0.50;;;20.50;47.60;;;;;;10476171;28;20139;-45
2023/12/29 05:47:38;;;;;;;0.68;0.47;;;20.60;47.60;;;;;;10476566;28;20178;-47
2023/12/29 05:52:39;;;;;;;1.00;0.55;;;20.50;47.70;;;;;;10476665;28;20124;-45
2023/12/29 05:57:42;;;;;;;1.40;0.60;;;20.50;47.80;;;;;;10465336;28;20139;-46
2023/12/29 06:02:44;;;;;;;1.00;0.60;;;20.60;47.70;;;;;;10471670;28;20646;-45
2023/12/29 06:07:45;;;;;;;0.90;0.60;;;20.60;47.80;;;;;;10474945;28;20135;-45
2023/12/29 06:12:48;;;;;;;1.42;0.47;;;20.70;47.30;;;;;;10480546;28;20064;-47
2023/12/29 06:17:50;;;;;;;0.70;0.50;;;20.70;47.50;;;;;;10475300;28;20147;-46
2023/12/29 06:22:51;;;;;;;0.80;0.50;;;20.70;47.30;;;;;;10470085;28;20465;-50
2023/12/29 06:27:55;;;;;;;0.80;0.68;;;20.70;47.20;;;;;;10471536;28;20136;-45
2023/12/29 06:32:56;;;;;;;0.50;0.45;;;20.80;46.90;;;;;;10475028;28;20052;-48
2023/12/29 06:37:58;;;;;;;0.65;0.50;;;20.80;46.90;;;;;;10473316;28;20123;-47
2023/12/29 06:43:01;;;;;;;1.48;0.50;;;20.90;46.60;;;;;;10476485;28;20092;-46
2023/12/29 06:48:02;;;;;;;1.05;0.50;;;20.90;46.60;;;;;;10471899;28;20075;-45
2023/12/29 06:53:04;;;;;;;0.63;0.50;;;20.90;46.70;;;;;;10477771;28;20120;-45
2023/12/29 06:58:08;;;;;;;1.23;0.60;;;20.90;46.50;;;;;;10482543;28;20469;-44
2023/12/29 07:03:09;;;;;;;0.98;0.60;;;21.10;46.20;;;;;;10473219;28;20451;-45
2023/12/29 07:08:13;;;;;;;0.50;0.40;;;21.10;46.00;;;;;;10465894;28;20084;-45
2023/12/29 07:13:16;;;;;;;1.13;0.50;;;21.10;46.10;;;;;;10462885;28;20047;-51
2023/12/29 07:18:18;;;;;;;0.50;0.50;;;21.10;45.90;;;;;;10473067;28;20561;-53
2023/12/29 07:23:20;;;;;;;1.13;0.52;;;21.00;46.20;;;;;;10481042;28;20152;-55
2023/12/29 07:28:22;;;;;;;1.05;0.50;;;21.10;45.90;;;;;;10474178;28;20139;-50
2023/12/29 07:33:24;;;;;;;0.68;0.47;;;21.10;46.00;;;;;;10472304;28;20162;-52
2023/12/29 07:38:26;;;;;;;1.10;0.43;;;21.20;45.60;;;;;;10468827;28;20136;-44
2023/12/29 07:43:29;;;;;;;0.68;0.40;;;21.30;45.70;;;;;;10473060;28;20056;-48
2023/12/29 07:48:31;;;;;;;1.83;0.73;;;21.30;45.50;;;;;;10468178;28;20129;-51
2023/12/29 07:53:32;;;;;;;1.10;0.70;;;21.30;45.40;;;;;;10468679;28;20357;-45
2023/12/29 07:58:35;;;;;;;1.27;0.70;;;21.40;45.40;;;;;;10472068;28;20136;-48
2023/12/29 08:03:37;;;;;;;0.90;0.50;;;21.40;45.50;;;;;;10470151;28;20149;-46
2023/12/29 08:08:38;;;;;;;1.17;0.57;;;21.40;45.20;;;;;;10483098;28;20135;-50
2023/12/29 08:13:41;;;;;;;1.10;0.70;;;21.40;45.20;;;;;;10473900;28;20041;-46
2023/12/29 08:18:43;;;;;;;1.23;0.70;;;21.40;45.40;;;;;;10464462;28;20562;-50
2023/12/29 08:23:45;;;;;;;2.97;0.60;;;21.30;45.40;;;;;;10465092;28;20155;-47
2023/12/29 08:28:47;;;;;;;2.10;0.75;;;21.40;45.50;;;;;;10465317;28;20136;-46
2023/12/29 08:33:49;;;;;;;0.98;0.70;;;21.50;45.30;;;;;;10476661;28;20136;-49
2023/12/29 08:38:52;;;;;;;1.75;0.80;;;21.50;45.30;;;;;;10472854;28;20139;-47
2023/12/29 08:43:55;;;;;;;1.88;0.70;;;21.40;45.30;;;;;;10470675;28;20051;-50
2023/12/29 08:48:57;;;;;;;1.25;0.70;;;21.50;45.30;;;;;;10473915;28;20127;-47
2023/12/29 08:53:58;;;;;;;1.27;0.60;;;21.40;45.30;;;;;;10473258;28;20557;-47
2023/12/29 08:59:01;;;;;;;1.67;0.70;;;21.50;45.40;;;;;;10472207;28;20151;-45
2023/12/29 09:04:03;;;;;;;1.50;0.80;;;21.40;45.40;;;;;;10467629;28;20127;-45
2023/12/29 09:09:05;;;;;;;2.05;0.70;;;21.50;45.30;;;;;;10464712;28;20232;-50
2023/12/29 09:14:08;;;;;;;1.25;0.63;;;21.40;45.30;;;;;;10470212;28;20045;-46
2023/12/29 09:19:09;;;;;;;1.98;1.00;;;21.50;45.30;;;;;;10475531;28;20135;-49
2023/12/29 09:24:11;;;;;;;1.05;0.60;;;21.50;45.30;;;;;;10472684;28;20124;-45
2023/12/29 09:29:14;;;;;;;1.20;0.60;;;21.50;45.30;;;;;;10468345;28;20560;-47
2023/12/29 09:34:15;;;;;;;1.83;0.68;;;21.50;45.20;;;;;;10464625;28;20139;-46
2023/12/29 09:39:17;;;;;;;1.45;0.75;;;21.50;45.20;;;;;;10469000;28;20049;-45
2023/12/29 09:44:21;;;;;;;0.90;0.60;;;21.40;45.40;;;;;;10464313;28;20569;-49
2023/12/29 09:49:22;;;;;;;1.30;0.70;;;21.50;45.50;;;;;;10471054;28;20063;-52
2023/12/29 09:54:24;;;;;;;0.93;0.40;;;21.50;45.20;;;;;;10469239;28;20040;-48
2023/12/29 09:59:27;;;;;;;1.23;0.57;;;21.50;45.30;;;;;;10471717;28;20131;-45
2023/12/29 10:04:29;;;;;;;1.70;0.52;;;21.50;45.40;;;;;;10484207;28;20127;-48
2023/12/29 10:09:30;;;;;;;1.20;0.50;;;21.50;45.30;;;;;;10476887;28;20136;-49
2023/12/29 10:14:40;;;;;;;1.08;0.68;;;21.50;45.40;;;;;;10467236;28;20179;-47
2023/12/29 10:19:45;;;;;;;0.73;0.50;;;21.50;45.60;;;;;;10470629;28;20493;-45
2023/12/29 10:24:46;;;;;;;1.08;0.60;;;21.50;45.50;;;;;;10474751;28;20068;-45
2023/12/29 10:29:49;;;;;;;1.27;0.50;;;21.50;45.50;;;;;;10483070;28;20047;-45
2023/12/29 10:34:51;;;;;;;2.50;0.70;;;21.60;45.60;;;;;;10477528;28;20048;-46
2023/12/29 10:39:56;;;;;;;1.00;0.55;;;21.60;45.60;;;;;;10476075;28;20469;-46
2023/12/29 10:45:07;;;;;;;1.63;0.60;;;21.60;45.50;;;;;;10477638;28;20052;-45
2023/12/29 10:50:09;;;;;;;1.63;0.60;;;21.60;45.50;;;;;;10473350;28;20049;-48
2023/12/29 10:55:11;;;;;;;1.70;0.88;;;21.60;45.50;;;;;;10482066;28;20688;-47
2023/12/29 11:00:16;;;;;;;1.17;0.60;;;21.60;45.30;;;;;;10468791;28;20147;-46
2023/12/29 11:05:17;;;;;;;2.97;0.80;;;21.70;45.20;;;;;;10473107;28;20094;-45
2023/12/29 11:10:19;;;;;;;1.10;0.50;;;21.70;45.20;;;;;;10472186;28;20448;-46
2023/12/29 11:15:22;;;;;;;0.80;0.50;;;21.70;45.10;;;;;;10480978;28;20087;-47
2023/12/29 11:20:24;;;;;;;1.08;0.70;;;21.70;45.10;;;;;;10479978;28;20144;-45
2023/12/29 11:25:26;;;;;;;1.67;0.77;;;21.70;45.00;;;;;;10470273;28;20072;-45
2023/12/29 11:30:29;;;;;;;1.38;0.55;;;21.70;45.00;;;;;;10467677;28;20152;-50
2023/12/29 11:35:33;;;;;;;1.10;0.75;;;21.70;45.20;;;;;;10468469;28;20123;-46
2023/12/29 11:40:37;;;;;;;0.90;0.60;;;21.70;45.10;;;;;;10470397;28;20127;-45
2023/12/29 11:45:41;;;;;;;1.65;0.70;;;21.70;45.10;;;;;;10476595;28;20049;-49
2023/12/29 11:50:43;;;;;;;0.95;0.60;;;21.80;45.10;;;;;;10470074;28;20136;-48
2023/12/29 11:55:44;;;;;;;0.90;0.63;;;21.70;45.10;;;;;;10473805;28;20131;-47
2023/12/29 12:00:47;;;;;;;0.73;0.55;;;21.80;45.10;;;;;;10479431;28;20485;-45
2023/12/29 12:05:49;;;;;;;1.52;0.60;;;21.80;45.10;;;;;;10473090;28;20131;-44
2023/12/29 12:10:51;;;;;;;1.17;0.70;;;21.90;45.10;;;;;;10468089;28;20083;-49
2023/12/29 12:15:54;;;;;;;0.90;0.55;;;21.80;45.20;;;;;;10465268;28;20674;-44
2023/12/29 12:20:56;;;;;;;1.55;0.55;;;21.80;45.10;;;;;;10469889;28;20044;-45
2023/12/29 12:25:59;;;;;;;1.20;0.68;;;21.80;45.30;;;;;;10477422;28;20127;-47
2023/12/29 12:31:08;;;;;;;0.90;0.63;;;21.80;45.30;;;;;;10473588;28;20045;-48
2023/12/29 12:36:10;;;;;;;1.10;0.60;;;21.80;45.30;;;;;;10468767;28;20498;-50
2023/12/29 12:41:12;;;;;;;0.85;0.57;;;21.80;45.20;;;;;;10470266;28;20080;-46
2023/12/29 12:46:15;;;;;;;0.98;0.47;;;21.80;45.20;;;;;;10472173;28;20055;-45
2023/12/29 12:51:16;;;;;;;1.80;0.70;;;21.80;45.20;;;;;;10475225;28;20482;-45
2023/12/29 12:56:18;;;;;;;0.60;0.50;;;21.90;45.10;;;;;;10468451;28;20128;-45
2023/12/29 13:01:21;;;;;;;0.90;0.50;;;21.90;45.20;;;;;;10469191;28;20417;-45
2023/12/29 13:06:23;;;;;;;1.08;0.73;;;21.80;45.30;;;;;;10467694;28;20128;-50
2023/12/29 13:11:25;;;;;;;0.88;0.47;;;21.80;45.20;;;;;;10476744;28;20110;-45
2023/12/29 13:16:32;;;;;;;1.77;0.60;;;21.90;45.10;;;;;;10474681;28;20438;-46
2023/12/29 13:21:33;;;;;;;1.90;0.70;;;21.90;45.10;;;;;;10465449;28;20048;-45
2023/12/29 13:26:35;;;;;;;1.42;0.50;;;21.90;45.00;;;;;;10467767;28;20484;-45
2023/12/29 13:31:38;;;;;;;1.23;0.70;;;21.90;45.20;;;;;;10467720;28;20135;-46
2023/12/29 13:36:42;;;;;;;0.63;0.60;;;21.90;45.20;;;;;;10476246;28;20072;-49
2023/12/29 13:41:43;;;;;;;1.92;0.80;;;21.90;45.20;;;;;;10481701;28;20136;-44
2023/12/29 13:46:46;;;;;;;2.47;0.60;;;21.60;46.00;;;;;;10474368;28;20049;-50
2023/12/29 13:51:48;;;;;;;1.48;0.60;;;21.40;46.80;;;;;;10477939;28;20159;-45
2023/12/29 13:56:53;;;;;;;0.55;0.50;;;21.40;47.10;;;;;;10479717;28;20135;-48
2023/12/29 14:01:56;;;;;;;0.95;0.50;;;21.40;47.00;;;;;;10481662;28;20049;-45
2023/12/29 14:07:00;;;;;;;1.10;0.70;;;21.40;47.10;;;;;;10478377;28;20083;-46
2023/12/29 14:12:02;;;;;;;0.80;0.50;;;21.50;46.90;;;;;;10471773;28;20052;-49
2023/12/29 14:17:10;;;;;;;0.77;0.50;;;21.60;46.70;;;;;;10472574;28;20200;-45
2023/12/29 14:22:21;;;;;;;1.02;0.50;;;21.60;46.80;;;;;;10483812;28;20056;-46
2023/12/29 14:27:26;;;;;;;1.40;0.60;;;21.40;47.20;;;;;;10475515;28;20515;-50
2023/12/29 14:32:30;;;;;;;0.95;0.50;;;21.40;47.20;;;;;;10475140;28;20080;-45
2023/12/29 14:37:31;;;;;;;1.27;0.50;;;21.60;47.10;;;;;;10470939;28;20144;-50
2023/12/29 14:42:33;;;;;;;1.83;0.80;;;21.50;47.20;;;;;;10480775;28;20139;-46
2023/12/29 14:47:36;;;;;;;1.25;0.80;;;21.70;47.10;;;;;;10481206;28;20575;-47
2023/12/29 14:52:38;;;;;;;0.70;0.50;;;21.60;47.10;;;;;;10468423;28;20144;-45
2023/12/29 14:57:39;;;;;;;1.42;0.50;;;21.70;47.00;;;;;;10470686;28;20128;-48
2023/12/29 15:02:43;;;;;;;1.52;0.65;;;21.60;47.10;;;;;;10471910;28;20159;-45
2023/12/29 15:07:44;;;;;;;1.83;0.82;;;21.70;47.10;;;;;;10479603;28;20149;-49
2023/12/29 15:12:46;;;;;;;1.10;0.60;;;21.70;47.00;;;;;;10482059;28;20135;-47
2023/12/29 15:17:49;;;;;;;1.15;0.60;;;21.80;47.00;;;;;;10476958;28;20137;-48
2023/12/29 15:22:52;;;;;;;1.23;0.60;;;21.80;47.00;;;;;;10471478;28;20788;-46
2023/12/29 15:27:53;;;;;;;1.70;0.75;;;21.80;47.10;;;;;;10472399;28;20103;-48
2023/12/29 15:32:56;;;;;;;1.17;0.77;;;21.70;47.10;;;;;;10487393;28;20123;-51
2023/12/29 15:37:58;;;;;;;1.35;0.60;;;21.80;47.10;;;;;;10476485;28;20131;-47
2023/12/29 15:43:00;;;;;;;2.03;0.85;;;21.90;46.90;;;;;;10474954;28;20578;-48
2023/12/29 15:48:03;;;;;;;1.38;0.70;;;21.90;46.80;;;;;;10475257;28;20488;-46
2023/12/29 15:53:05;;;;;;;1.33;0.60;;;21.90;46.70;;;;;;10476872;28;20128;-48
2023/12/29 15:58:06;;;;;;;1.58;0.88;;;21.90;46.80;;;;;;10478241;28;20135;-47
2023/12/29 16:03:09;;;;;;;0.77;0.60;;;21.90;46.70;;;;;;10475022;28;20049;-47
2023/12/29 16:08:11;;;;;;;1.27;0.70;;;21.90;46.70;;;;;;10468760;28;20136;-50
2023/12/29 16:13:13;;;;;;;2.25;0.70;;;22.00;46.60;;;;;;10474281;28;20126;-45
2023/12/29 16:18:17;;;;;;;1.83;0.80;;;21.90;46.50;;;;;;10473448;28;20055;-46
2023/12/29 16:23:18;;;;;;;1.35;0.80;;;22.00;46.40;;;;;;10473140;28;20051;-50
2023/12/29 16:28:20;;;;;;;2.05;0.90;;;22.10;46.20;;;;;;10470961;28;20102;-47
2023/12/29 16:33:23;;;;;;;3.00;1.02;;;22.00;46.40;;;;;;10471537;28;20139;-46
2023/12/29 16:38:24;;;;;;;1.30;0.70;;;22.00;46.20;;;;;;10474165;28;20087;-47
2023/12/29 16:43:26;;;;;;;1.77;0.70;;;22.10;46.00;;;;;;10473326;28;20123;-46
2023/12/29 16:48:29;;;;;;;2.03;1.00;;;22.10;46.10;;;;;;10468230;28;20139;-47
2023/12/29 16:53:30;;;;;;;1.73;0.77;;;22.00;46.10;;;;;;10467358;28;20170;-46
2023/12/29 16:58:32;;;;;;;2.00;0.98;;;22.10;46.20;;;;;;10470845;28;20164;-48
2023/12/29 17:03:35;;;;;;;1.80;0.90;;;22.10;46.10;;;;;;10469745;28;20049;-47
2023/12/29 17:08:37;;;;;;;2.20;0.70;;;22.20;45.90;;;;;;10476470;28;20140;-46
2023/12/29 17:13:39;;;;;;;1.38;0.70;;;22.20;45.90;;;;;;10472729;28;20473;-46
2023/12/29 17:18:41;;;;;;;1.60;0.80;;;22.10;45.80;;;;;;10466666;28;20151;-48
2023/12/29 17:23:44;;;;;;;2.45;0.80;;;22.20;45.90;;;;;;10470089;28;20127;-48
2023/12/29 17:28:45;;;;;;;1.80;0.80;;;22.20;46.00;;;;;;10480433;28;20056;-48
2023/12/29 17:33:48;;;;;;;2.20;0.80;;;22.10;45.90;;;;;;10471924;28;20045;-46
2023/12/29 17:38:52;;;;;;;1.60;0.88;;;22.20;45.90;;;;;;10466592;28;20132;-46
2023/12/29 17:43:54;;;;;;;1.75;0.70;;;22.20;45.80;;;;;;10467928;28;20119;-46
2023/12/29 17:48:57;;;;;;;2.25;0.80;;;22.20;46.00;;;;;;10471164;28;20052;-45
2023/12/29 17:53:59;;;;;;;2.17;1.00;;;22.10;46.00;;;;;;10478392;28;20132;-46
2023/12/29 17:59:01;;;;;;;1.83;0.70;;;22.20;45.80;;;;;;10471090;28;20152;-48
2023/12/29 18:04:04;;;;;;;0.98;0.65;;;22.20;46.00;;;;;;10470836;28;20533;-48
2023/12/29 18:09:05;;;;;;;1.92;0.88;;;22.20;45.80;;;;;;10464458;28;20131;-46
2023/12/29 18:14:07;;;;;;;2.13;0.73;;;22.30;45.70;;;;;;10466974;28;20080;-47
2023/12/29 18:19:10;;;;;;;1.85;0.80;;;22.30;45.80;;;;;;10479663;28;20136;-48
2023/12/29 18:24:12;;;;;;;1.13;0.75;;;22.30;45.80;;;;;;10478805;28;20048;-47
2023/12/29 18:29:14;;;;;;;1.10;0.65;;;22.30;45.70;;;;;;10476051;28;20049;-46
2023/12/29 18:34:17;;;;;;;1.15;0.63;;;22.30;45.80;;;;;;10473456;28;20127;-48
2023/12/29 18:39:18;;;;;;;1.42;0.70;;;22.30;45.70;;;;;;10474117;28;20453;-46
2023/12/29 18:44:20;;;;;;;1.35;0.70;;;22.30;45.60;;;;;;10483722;28;20068;-48
2023/12/29 18:49:23;;;;;;;1.40;0.65;;;22.40;45.70;;;;;;10472254;28;20135;-48
2023/12/29 18:54:28;;;;;;;2.03;0.90;;;22.40;45.60;;;;;;10474334;28;20519;-47
2023/12/29 18:59:29;;;;;;;1.23;0.63;;;22.30;45.70;;;;;;10480983;28;20055;-46
2023/12/29 19:04:32;;;;;;;1.88;0.80;;;22.30;45.80;;;;;;10479939;28;20690;-46
2023/12/29 19:09:34;;;;;;;1.90;0.95;;;22.30;45.90;;;;;;10473472;28;20048;-46
2023/12/29 19:14:36;;;;;;;1.80;0.80;;;22.40;45.70;;;;;;10472134;28;20140;-47
2023/12/29 19:19:39;;;;;;;1.63;0.85;;;22.30;45.70;;;;;;10472963;28;20063;-48
2023/12/29 19:24:43;;;;;;;1.88;0.80;;;22.20;45.80;;;;;;10479297;28;20128;-48
2023/12/29 19:29:45;;;;;;;1.83;0.95;;;22.20;45.50;;;;;;10471383;28;20052;-46
2023/12/29 19:34:49;;;;;;;1.48;0.75;;;22.20;45.60;;;;;;10473241;28;20131;-49
2023/12/29 19:39:50;;;;;;;1.75;0.80;;;22.10;45.60;;;;;;10477777;28;20080;-50
2023/12/29 19:44:52;;;;;;;1.98;0.90;;;22.10;45.60;;;;;;10476167;28;20687;-47
2023/12/29 19:49:55;;;;;;;2.40;0.90;;;22.10;45.60;;;;;;10481291;28;20136;-46
2023/12/29 19:54:56;;;;;;;1.92;0.80;;;22.00;45.70;;;;;;10473436;28;20047;-46
2023/12/29 19:59:58;;;;;;;1.80;0.75;;;21.90;45.70;;;;;;10470209;28;20057;-48
2023/12/29 20:05:01;;;;;;;1.70;0.80;;;21.90;45.70;;;;;;10473919;28;20459;-45
2023/12/29 20:10:03;;;;;;;0.85;0.57;;;21.90;45.60;;;;;;10471750;28;20106;-47
2023/12/29 20:15:06;;;;;;;1.50;0.80;;;22.00;45.40;;;;;;10477296;28;20041;-46
2023/12/29 20:20:12;;;;;;;1.73;0.80;;;21.90;45.20;;;;;;10475281;28;20053;-49
2023/12/29 20:25:14;;;;;;;1.90;0.77;;;22.00;45.20;;;;;;10470900;28;20048;-46
2023/12/29 20:30:17;;;;;;;1.27;0.90;;;22.00;45.10;;;;;;10472060;28;20052;-46
2023/12/29 20:35:20;;;;;;;1.63;0.85;;;22.00;45.10;;;;;;10474970;28;20067;-48
2023/12/29 20:40:22;;;;;;;2.03;0.90;;;21.80;45.30;;;;;;10472004;28;20080;-47
2023/12/29 20:45:23;;;;;;;1.83;0.80;;;22.00;45.00;;;;;;10464203;28;20507;-46
2023/12/29 20:50:26;;;;;;;1.25;0.68;;;21.90;45.20;;;;;;10471651;28;20057;-46
2023/12/29 20:55:28;;;;;;;1.50;0.70;;;22.00;44.70;;;;;;10472768;28;20048;-47
2023/12/29 21:00:29;;;;;;;1.70;0.80;;;21.90;44.90;;;;;;10470994;28;20140;-46
2023/12/29 21:05:32;;;;;;;0.90;0.60;;;21.80;45.00;;;;;;10471414;28;20076;-46
2023/12/29 21:10:34;;;;;;;2.03;0.88;;;21.80;45.10;;;;;;10472352;28;20152;-46
2023/12/29 21:15:36;;;;;;;1.83;0.70;;;21.80;45.10;;;;;;10474384;28;20151;-46
2023/12/29 21:20:39;;;;;;;1.10;0.65;;;21.50;45.70;;;;;;10466652;28;20053;-46
2023/12/29 21:25:41;;;;;;;1.55;0.70;;;21.30;45.90;;;;;;10475518;28;20055;-49
2023/12/29 21:30:43;;;;;;;0.82;0.60;;;20.90;46.70;;;;;;10464770;28;20140;-45
2023/12/29 21:35:47;;;;;;;1.52;0.73;;;20.90;46.90;;;;;;10469374;28;20055;-46
2023/12/29 21:40:49;;;;;;;1.20;0.70;;;20.90;46.70;;;;;;10470615;28;20053;-46
2023/12/29 21:45:50;;;;;;;1.05;0.60;;;21.00;46.50;;;;;;10476145;28;20055;-46
2023/12/29 21:50:53;;;;;;;0.60;0.60;;;20.90;46.50;;;;;;10465320;28;20143;-47
2023/12/29 21:55:56;;;;;;;0.70;0.60;;;21.00;46.40;;;;;;10464150;28;20040;-47
2023/12/29 22:01:18;;;;;;;0.90;0.60;;;20.90;46.60;;;;;;10474078;28;20139;-47
2023/12/29 22:06:21;;;;;;;1.35;0.68;;;20.80;46.90;;;;;;10483229;28;20136;-47
2023/12/29 22:11:23;;;;;;;0.85;0.60;;;20.80;46.60;;;;;;10476538;28;20078;-49
2023/12/29 22:16:25;;;;;;;1.23;0.75;;;20.80;46.50;;;;;;10475838;28;20049;-46
2023/12/29 22:21:28;;;;;;;1.30;0.60;;;20.80;46.60;;;;;;10476477;28;20049;-46
2023/12/29 22:26:30;;;;;;;0.82;0.50;;;20.80;46.50;;;;;;10470361;28;20495;-49
2023/12/29 22:31:31;;;;;;;1.00;0.65;;;20.70;46.60;;;;;;10474788;28;20135;-45
2023/12/29 22:36:34;;;;;;;0.80;0.70;;;20.80;46.50;;;;;;10471540;28;20135;-47
2023/12/29 22:41:36;;;;;;;0.68;0.50;;;20.60;46.80;;;;;;10474820;28;20049;-50
2023/12/29 22:46:38;;;;;;;1.38;0.70;;;20.50;46.70;;;;;;10474011;28;20128;-45
2023/12/29 22:51:41;;;;;;;0.95;0.50;;;20.50;46.70;;;;;;10475007;28;20099;-46
2023/12/29 22:56:42;;;;;;;1.33;0.80;;;20.50;46.70;;;;;;10481847;28;20048;-45
2023/12/29 23:01:45;;;;;;;1.52;0.70;;;20.50;46.70;;;;;;10467913;28;20055;-45
2023/12/29 23:06:48;;;;;;;1.00;0.70;;;20.50;46.70;;;;;;10466434;28;20072;-48
2023/12/29 23:11:49;;;;;;;0.90;0.60;;;20.40;46.70;;;;;;10467085;28;20582;-47
2023/12/29 23:16:51;;;;;;;1.15;0.60;;;20.40;46.70;;;;;;10480944;28;20139;-45
2023/12/29 23:21:54;;;;;;;1.05;0.60;;;20.40;46.70;;;;;;10480392;28;20154;-45
2023/12/29 23:26:56;;;;;;;0.90;0.60;;;20.30;46.80;;;;;;10466678;28;20123;-46
2023/12/29 23:31:57;;;;;;;0.90;0.57;;;20.40;46.70;;;;;;10470987;28;20140;-45
2023/12/29 23:37:00;;;;;;;1.20;0.50;;;20.30;46.70;;;;;;10475094;28;20139;-49
2023/12/29 23:42:02;;;;;;;1.30;0.63;;;20.30;46.70;;;;;;10475681;28;20143;-48
2023/12/29 23:47:03;;;;;;;1.45;0.60;;;20.30;46.60;;;;;;10475777;28;20557;-45
2023/12/29 23:52:07;;;;;;;2.05;0.55;;;20.30;46.60;;;;;;10469149;28;20127;-49
2023/12/29 23:57:08;;;;;;;1.25;0.60;;;20.30;46.60;;;;;;10473240;28;20153;-47
